Time;durP1;ratioP1;P1;durP2;ratioP2;P2;SDS_P1;SDS_P2;PMS_P1;PMS_P2;Temp;Humidity;BMP_temperature;BMP_pressure;BME280_temperature;BME280_humidity;BME280_pressure;Samples;Min_cycle;Max_cycle;Signal;HPM_P1;HPM_P2
2021/07/17 00:02:24;;;;;;;32.38;11.60;;;19.10;91.30;;;;;;5018510;28;20028;-82
2021/07/17 00:04:51;;;;;;;26.85;11.55;;;19.10;91.20;;;;;;5030401;28;20045;-82
2021/07/17 00:07:16;;;;;;;28.15;10.35;;;19.10;91.00;;;;;;5013793;28;20570;-82
2021/07/17 00:09:42;;;;;;;32.60;11.95;;;19.20;90.50;;;;;;5017380;28;20159;-82
2021/07/17 00:12:08;;;;;;;27.70;10.70;;;19.10;90.80;;;;;;5034528;28;20535;-82
2021/07/17 00:14:34;;;;;;;31.63;11.85;;;19.10;90.60;;;;;;5047821;28;20037;-82
2021/07/17 00:16:59;;;;;;;25.27;12.18;;;19.10;90.90;;;;;;5044410;28;20246;-82
2021/07/17 00:19:25;;;;;;;30.27;13.40;;;19.00;91.60;;;;;;5014398;28;20115;-82
2021/07/17 00:21:50;;;;;;;32.55;11.20;;;19.00;91.40;;;;;;5035028;28;20373;-82
2021/07/17 00:24:16;;;;;;;28.13;11.10;;;19.00;91.80;;;;;;5060124;28;20563;-82
2021/07/17 00:26:41;;;;;;;35.20;11.82;;;19.00;92.50;;;;;;5033230;28;20262;-82
2021/07/17 00:29:07;;;;;;;29.73;11.15;;;19.00;91.20;;;;;;5046582;28;20064;-82
2021/07/17 00:31:32;;;;;;;35.60;12.57;;;19.00;91.10;;;;;;5031768;28;20034;-82
2021/07/17 00:33:58;;;;;;;27.13;11.93;;;19.00;90.80;;;;;;5058943;28;20492;-82
2021/07/17 00:36:24;;;;;;;28.60;11.82;;;18.90;91.70;;;;;;5014233;28;20128;-82
2021/07/17 00:38:50;;;;;;;29.13;10.23;;;18.90;91.60;;;;;;5030544;28;20036;-82
2021/07/17 00:41:15;;;;;;;31.27;12.63;;;18.90;91.80;;;;;;5046742;28;20446;-82
2021/07/17 00:43:41;;;;;;;31.58;12.65;;;18.90;91.90;;;;;;5031547;28;20024;-82
2021/07/17 00:46:06;;;;;;;33.22;12.15;;;18.90;91.80;;;;;;5030292;28;20447;-82
2021/07/17 00:48:32;;;;;;;35.20;12.45;;;18.90;91.60;;;;;;5032933;28;20116;-82
2021/07/17 00:50:57;;;;;;;31.83;11.98;;;18.90;91.80;;;;;;5034900;28;20059;-82
2021/07/17 00:53:23;;;;;;;29.90;13.65;;;18.80;92.60;;;;;;5043138;28;21180;-82
2021/07/17 00:55:49;;;;;;;27.02;12.05;;;18.80;92.50;;;;;;5032636;28;20031;-82
2021/07/17 00:58:19;;;;;;;34.35;13.52;;;18.80;92.70;;;;;;5015971;28;20047;-82
2021/07/17 01:00:44;;;;;;;33.40;12.63;;;18.80;92.50;;;;;;5044425;28;20496;-82
2021/07/17 01:03:10;;;;;;;26.35;10.93;;;18.80;92.30;;;;;;5053634;28;20051;-82
2021/07/17 01:05:36;;;;;;;33.85;13.75;;;18.70;92.40;;;;;;5033886;28;20033;-82
2021/07/17 01:08:01;;;;;;;33.17;12.05;;;18.70;92.20;;;;;;5038706;28;20485;-82
2021/07/17 01:10:27;;;;;;;27.58;12.15;;;18.70;92.80;;;;;;5018613;28;20029;-82
2021/07/17 01:12:53;;;;;;;24.75;10.57;;;18.70;92.90;;;;;;5028585;28;20051;-82
2021/07/17 01:15:19;;;;;;;31.23;12.57;;;18.60;92.80;;;;;;5032114;28;20029;-82
2021/07/17 01:17:44;;;;;;;28.65;12.70;;;18.70;92.80;;;;;;5047396;28;20037;-82
2021/07/17 01:20:11;;;;;;;25.17;11.30;;;18.70;92.90;;;;;;5013422;28;20036;-82
2021/07/17 01:22:40;;;;;;;30.25;12.02;;;18.70;93.00;;;;;;5046900;28;20037;-82
2021/07/17 01:25:11;;;;;;;32.70;13.13;;;18.70;93.20;;;;;;5045420;28;20036;-82
2021/07/17 01:27:37;;;;;;;34.28;12.32;;;18.60;92.90;;;;;;5029596;28;20527;-82
2021/07/17 01:30:08;;;;;;;32.40;12.43;;;18.60;93.40;;;;;;5026375;28;20057;-82
2021/07/17 01:32:34;;;;;;;42.15;14.65;;;18.60;93.40;;;;;;5011911;28;20066;-82
2021/07/17 01:34:59;;;;;;;35.10;12.60;;;18.60;94.00;;;;;;5039857;28;20564;-82
2021/07/17 01:37:25;;;;;;;33.72;14.85;;;18.50;93.20;;;;;;5031308;28;20508;-82
2021/07/17 01:39:51;;;;;;;28.58;13.13;;;18.50;93.70;;;;;;5047896;28;20050;-82
2021/07/17 01:42:16;;;;;;;29.67;12.93;;;18.50;93.60;;;;;;5015857;28;20131;-82
2021/07/17 01:44:42;;;;;;;24.80;10.00;;;18.60;93.50;;;;;;5061320;28;20036;-82
2021/07/17 01:47:09;;;;;;;25.52;12.63;;;18.60;93.30;;;;;;5028031;28;20067;-82
2021/07/17 01:49:35;;;;;;;31.70;11.82;;;18.50;93.60;;;;;;5032084;28;20102;-82
2021/07/17 01:52:00;;;;;;;29.25;12.85;;;18.50;94.10;;;;;;5055526;28;20483;-82
2021/07/17 01:54:26;;;;;;;27.83;12.60;;;18.50;93.40;;;;;;5014275;28;20037;-81
2021/07/17 01:56:51;;;;;;;33.88;12.65;;;18.50;93.50;;;;;;5032757;28;20085;-82
2021/07/17 01:59:17;;;;;;;28.42;11.80;;;18.50;93.50;;;;;;5042799;28;20048;-82
2021/07/17 02:01:42;;;;;;;29.85;13.05;;;18.50;93.20;;;;;;5030763;28;20259;-82
2021/07/17 02:04:08;;;;;;;25.63;11.40;;;18.50;93.20;;;;;;5024620;28;20037;-82
2021/07/17 02:06:33;;;;;;;34.70;12.90;;;18.40;93.50;;;;;;5030820;28;20017;-82
2021/07/17 02:08:59;;;;;;;27.45;13.23;;;18.40;93.50;;;;;;5041751;28;20477;-82
2021/07/17 02:11:24;;;;;;;29.73;13.77;;;18.40;93.50;;;;;;5042664;28;20394;-82
2021/07/17 02:13:50;;;;;;;36.08;12.05;;;18.40;94.00;;;;;;5033113;28;20638;-82
2021/07/17 02:16:16;;;;;;;33.30;11.05;;;18.40;93.90;;;;;;5011443;28;20041;-82
2021/07/17 02:18:42;;;;;;;29.13;12.60;;;18.40;93.90;;;;;;5037792;28;20546;-81
2021/07/17 02:21:08;;;;;;;27.25;11.88;;;18.40;93.60;;;;;;5028075;28;20025;-82
2021/07/17 02:23:36;;;;;;;22.48;10.32;;;18.40;93.60;;;;;;5048913;28;20032;-83
2021/07/17 02:26:03;;;;;;;21.88;11.43;;;18.30;93.40;;;;;;5033368;28;20613;-82
2021/07/17 02:28:29;;;;;;;29.30;12.50;;;18.40;94.10;;;;;;5023116;28;20402;-82
2021/07/17 02:30:54;;;;;;;30.83;13.07;;;18.30;93.80;;;;;;5032131;28;20028;-82
2021/07/17 02:33:20;;;;;;;27.38;12.10;;;18.20;94.00;;;;;;5030396;28;20025;-82
2021/07/17 02:35:45;;;;;;;35.60;12.13;;;18.30;94.00;;;;;;5033768;28;20125;-82
2021/07/17 02:38:11;;;;;;;36.92;12.80;;;18.20;94.00;;;;;;5058642;28;20028;-82
2021/07/17 02:40:37;;;;;;;31.67;12.10;;;18.20;93.80;;;;;;5034241;28;20121;-82
2021/07/17 02:43:02;;;;;;;26.30;12.23;;;18.20;94.00;;;;;;5056977;28;20404;-82
2021/07/17 02:45:28;;;;;;;36.55;12.15;;;18.20;93.80;;;;;;5032144;28;20036;-82
2021/07/17 02:47:53;;;;;;;30.05;12.38;;;18.20;93.80;;;;;;5031438;28;20029;-82
2021/07/17 02:50:19;;;;;;;23.80;11.80;;;18.20;93.80;;;;;;5015425;28;20032;-82
2021/07/17 02:52:45;;;;;;;31.60;12.20;;;18.20;94.20;;;;;;5037992;28;20064;-82
2021/07/17 02:55:10;;;;;;;22.10;12.30;;;18.30;93.90;;;;;;5014733;28;20033;-82
2021/07/17 02:57:36;;;;;;;27.95;11.25;;;18.20;93.90;;;;;;5046689;28;20495;-82
2021/07/17 03:00:05;;;;;;;26.90;12.55;;;18.20;93.80;;;;;;5043814;28;20436;-82
2021/07/17 03:02:30;;;;;;;30.65;12.18;;;18.20;94.00;;;;;;5033634;28;20044;-82
2021/07/17 03:04:56;;;;;;;22.75;11.10;;;18.20;93.90;;;;;;5034346;28;20048;-82
2021/07/17 03:07:21;;;;;;;33.25;12.07;;;18.10;94.10;;;;;;5045367;28;20749;-81
2021/07/17 03:09:47;;;;;;;22.88;11.35;;;18.10;94.30;;;;;;5045805;28;20094;-82
2021/07/17 03:12:12;;;;;;;27.88;11.25;;;18.10;93.60;;;;;;5059615;28;20033;-82
2021/07/17 03:14:38;;;;;;;37.45;12.85;;;18.10;93.40;;;;;;5036933;28;20028;-82
2021/07/17 03:17:03;;;;;;;26.02;11.40;;;18.10;93.90;;;;;;5057127;28;20469;-82
2021/07/17 03:19:29;;;;;;;32.05;11.60;;;18.00;94.20;;;;;;5063265;28;20442;-82
2021/07/17 03:21:55;;;;;;;28.15;11.82;;;18.10;93.90;;;;;;5033727;28;20528;-82
2021/07/17 03:24:20;;;;;;;25.48;12.75;;;17.90;93.80;;;;;;5015422;28;20439;-83
2021/07/17 03:26:46;;;;;;;30.83;12.30;;;18.10;94.30;;;;;;5025021;28;20127;-82
2021/07/17 03:29:11;;;;;;;32.38;12.70;;;18.00;93.70;;;;;;5029198;28;20024;-82
2021/07/17 03:31:37;;;;;;;32.97;12.32;;;17.90;94.30;;;;;;5021410;28;20056;-82
2021/07/17 03:34:02;;;;;;;24.33;11.25;;;18.00;94.50;;;;;;5028816;28;20036;-82
2021/07/17 03:36:28;;;;;;;27.73;12.55;;;17.90;94.40;;;;;;5021610;28;20040;-82
2021/07/17 03:38:53;;;;;;;34.60;13.75;;;18.00;94.30;;;;;;5031875;28;20384;-82
2021/07/17 03:41:19;;;;;;;26.25;12.73;;;17.90;94.60;;;;;;5047944;28;20111;-82
2021/07/17 03:43:45;;;;;;;26.17;13.20;;;17.90;94.40;;;;;;5016788;28;20052;-82
2021/07/17 03:46:11;;;;;;;42.88;13.60;;;17.90;94.30;;;;;;5051560;28;20033;-82
2021/07/17 03:48:37;;;;;;;29.00;12.27;;;17.90;94.60;;;;;;5032253;28;20032;-81
2021/07/17 03:51:03;;;;;;;25.58;11.63;;;17.90;94.40;;;;;;5028741;28;20025;-81
2021/07/17 03:53:28;;;;;;;23.75;12.32;;;17.90;94.60;;;;;;5033906;28;20511;-81
2021/07/17 03:55:54;;;;;;;25.38;12.55;;;17.90;94.40;;;;;;5031051;28;20029;-82
2021/07/17 03:58:19;;;;;;;30.98;13.25;;;17.90;94.60;;;;;;5012551;28;20025;-82
2021/07/17 04:00:45;;;;;;;30.10;12.98;;;18.00;94.40;;;;;;5039438;28;20056;-82
2021/07/17 04:03:10;;;;;;;34.40;13.15;;;17.90;94.60;;;;;;5033785;28;20107;-82
2021/07/17 04:05:36;;;;;;;28.90;13.07;;;17.90;94.30;;;;;;5036588;28;20044;-82
2021/07/17 04:08:02;;;;;;;27.92;12.10;;;17.90;94.40;;;;;;5041464;28;20029;-82
2021/07/17 04:10:27;;;;;;;28.40;11.93;;;18.00;94.80;;;;;;5040089;28;20028;-82
2021/07/17 04:12:53;;;;;;;30.00;13.65;;;18.00;94.20;;;;;;5031407;28;20033;-82
2021/07/17 04:15:18;;;;;;;22.10;11.20;;;17.90;94.40;;;;;;5060748;28;20028;-82
2021/07/17 04:17:44;;;;;;;30.23;13.13;;;18.00;94.40;;;;;;5020197;28;20051;-83
2021/07/17 04:20:10;;;;;;;24.83;12.57;;;18.00;94.30;;;;;;5057491;28;20107;-82
2021/07/17 04:22:36;;;;;;;27.98;11.98;;;18.00;94.50;;;;;;5032581;28;20033;-82
2021/07/17 04:25:02;;;;;;;25.10;11.88;;;18.00;94.30;;;;;;5058384;28;20044;-82
2021/07/17 04:27:28;;;;;;;25.92;10.73;;;18.00;94.20;;;;;;5032944;28;20035;-82
2021/07/17 04:29:53;;;;;;;28.23;14.02;;;18.00;94.30;;;;;;5035992;28;20055;-82
2021/07/17 04:32:19;;;;;;;29.45;12.65;;;18.00;94.40;;;;;;5030731;28;20024;-82
2021/07/17 04:34:44;;;;;;;26.17;11.50;;;18.00;94.50;;;;;;5033655;28;20082;-82
2021/07/17 04:37:17;;;;;;;30.48;12.23;;;18.00;94.70;;;;;;5042885;28;20333;-82
2021/07/17 04:39:42;;;;;;;25.83;11.35;;;18.00;94.60;;;;;;5036644;28;21054;-82
2021/07/17 04:42:08;;;;;;;31.13;13.00;;;18.10;94.50;;;;;;5028045;28;20029;-82
2021/07/17 04:44:34;;;;;;;30.33;14.57;;;18.00;94.60;;;;;;5034416;28;20039;-82
2021/07/17 04:46:59;;;;;;;33.67;15.18;;;18.00;95.00;;;;;;5046261;28;20032;-82
2021/07/17 04:49:25;;;;;;;26.52;12.18;;;18.00;95.10;;;;;;5021438;28;20032;-82
2021/07/17 04:51:50;;;;;;;36.10;14.73;;;18.10;95.00;;;;;;5033009;28;20028;-82
2021/07/17 04:54:16;;;;;;;25.30;13.30;;;18.10;95.80;;;;;;5029718;28;20068;-82
2021/07/17 04:56:42;;;;;;;21.85;12.02;;;18.10;95.60;;;;;;5030896;28;20027;-82
2021/07/17 04:59:07;;;;;;;33.25;13.98;;;18.20;95.00;;;;;;5027562;28;20046;-82
2021/07/17 05:01:33;;;;;;;32.35;14.23;;;18.20;95.20;;;;;;5016356;28;20500;-82
2021/07/17 05:03:59;;;;;;;32.75;13.48;;;18.20;95.10;;;;;;5029793;28;20043;-82
2021/07/17 05:06:24;;;;;;;33.22;13.93;;;18.20;95.80;;;;;;5030312;28;20111;-83
2021/07/17 05:08:50;;;;;;;31.13;14.27;;;18.30;95.20;;;;;;5039598;28;20031;-82
2021/07/17 05:11:15;;;;;;;26.15;11.45;;;18.30;95.70;;;;;;5012262;28;20029;-83
2021/07/17 05:13:41;;;;;;;34.00;15.25;;;18.20;95.40;;;;;;5051422;28;20027;-83
2021/07/17 05:16:06;;;;;;;28.52;13.43;;;18.30;95.90;;;;;;5036568;28;20029;-82
2021/07/17 05:18:32;;;;;;;32.20;13.35;;;18.30;96.00;;;;;;5036548;28;20495;-82
2021/07/17 05:20:58;;;;;;;26.73;12.45;;;18.40;95.90;;;;;;5028876;28;20044;-83
2021/07/17 05:23:24;;;;;;;23.77;12.77;;;18.40;95.70;;;;;;5039517;28;20518;-82
2021/07/17 05:25:50;;;;;;;27.25;13.18;;;18.50;95.60;;;;;;5028727;28;20056;-82
2021/07/17 05:28:17;;;;;;;34.42;14.38;;;18.50;95.60;;;;;;5046360;28;20029;-83
2021/07/17 05:30:42;;;;;;;28.38;14.68;;;18.50;95.60;;;;;;5025247;28;20361;-83
2021/07/17 05:33:09;;;;;;;24.42;13.05;;;18.60;95.60;;;;;;5045750;28;20439;-82
2021/07/17 05:35:34;;;;;;;26.92;12.45;;;18.60;95.40;;;;;;5031934;28;20032;-82
2021/07/17 05:38:00;;;;;;;33.22;14.20;;;18.70;95.50;;;;;;5023244;28;20033;-83
2021/07/17 05:40:26;;;;;;;34.70;15.65;;;18.60;95.20;;;;;;5023274;28;20028;-82
2021/07/17 05:42:51;;;;;;;31.17;14.75;;;18.60;95.40;;;;;;5045722;28;20043;-82
2021/07/17 05:45:17;;;;;;;32.65;13.52;;;18.60;95.40;;;;;;5013447;28;20086;-82
2021/07/17 05:47:42;;;;;;;30.63;12.10;;;18.80;95.50;;;;;;5033252;28;20048;-82
2021/07/17 05:50:08;;;;;;;22.20;11.93;;;18.70;95.20;;;;;;5022528;28;20399;-82
2021/07/17 05:52:34;;;;;;;33.78;13.25;;;18.80;95.20;;;;;;5031451;28;20090;-81
2021/07/17 05:54:59;;;;;;;26.40;14.10;;;18.70;95.30;;;;;;5056975;28;20029;-82
2021/07/17 05:57:25;;;;;;;30.33;14.40;;;18.80;95.60;;;;;;5042672;28;20029;-82
2021/07/17 05:59:51;;;;;;;31.42;13.40;;;18.90;95.70;;;;;;5034567;28;20086;-82
2021/07/17 06:02:17;;;;;;;32.47;13.70;;;18.90;95.50;;;;;;5047887;28;20033;-82
2021/07/17 06:04:43;;;;;;;29.23;12.88;;;19.00;95.50;;;;;;5019819;28;20090;-82
2021/07/17 06:07:09;;;;;;;27.48;13.77;;;19.10;95.50;;;;;;5029420;28;20097;-82
2021/07/17 06:09:34;;;;;;;27.77;13.02;;;19.20;95.50;;;;;;5019280;28;20028;-82
2021/07/17 06:12:00;;;;;;;30.70;12.90;;;19.20;95.30;;;;;;5059536;28;20025;-82
2021/07/17 06:14:25;;;;;;;27.30;13.90;;;19.20;95.30;;;;;;5059463;28;20045;-82
2021/07/17 06:16:51;;;;;;;25.80;13.20;;;19.30;95.10;;;;;;5037471;28;20474;-82
2021/07/17 06:19:17;;;;;;;29.98;13.77;;;19.30;95.00;;;;;;5045872;28;20025;-82
2021/07/17 06:21:42;;;;;;;27.85;12.30;;;19.40;94.90;;;;;;5036170;28;20491;-82
2021/07/17 06:24:08;;;;;;;24.08;13.40;;;19.50;94.80;;;;;;5018697;28;20035;-82
2021/07/17 06:26:33;;;;;;;17.27;10.63;;;19.50;94.80;;;;;;5036705;28;20392;-81
2021/07/17 06:28:59;;;;;;;26.45;12.38;;;19.60;94.70;;;;;;5020118;28;20025;-82
2021/07/17 06:31:24;;;;;;;32.97;13.32;;;19.60;94.60;;;;;;5035658;28;20060;-82
2021/07/17 06:33:50;;;;;;;31.08;13.75;;;19.60;94.60;;;;;;5032072;28;20028;-82
2021/07/17 06:36:16;;;;;;;32.58;13.63;;;19.70;94.70;;;;;;5043898;28;20561;-83
2021/07/17 06:38:43;;;;;;;29.40;15.13;;;19.70;94.70;;;;;;5049299;28;20051;-81
2021/07/17 06:41:08;;;;;;;33.17;16.17;;;19.60;94.70;;;;;;5056351;28;20028;-81
2021/07/17 06:43:35;;;;;;;34.17;16.27;;;19.60;94.70;;;;;;5037376;28;20029;-82
2021/07/17 06:46:01;;;;;;;31.23;14.90;;;19.60;94.60;;;;;;5030370;28;20496;-81
2021/07/17 06:48:27;;;;;;;33.08;17.00;;;19.70;94.60;;;;;;5033909;28;20035;-81
2021/07/17 06:50:52;;;;;;;30.15;15.45;;;19.80;94.70;;;;;;5032099;28;20036;-81
2021/07/17 06:53:18;;;;;;;35.47;17.30;;;19.80;94.70;;;;;;5013899;28;20024;-81
2021/07/17 06:55:43;;;;;;;31.85;15.23;;;19.80;94.70;;;;;;5033808;28;20058;-81
2021/07/17 06:58:09;;;;;;;28.23;16.15;;;19.90;94.60;;;;;;5027685;28;20128;-82
2021/07/17 07:00:35;;;;;;;33.95;15.07;;;19.90;94.80;;;;;;5019799;28;20572;-82
2021/07/17 07:03:02;;;;;;;31.45;16.48;;;20.00;94.60;;;;;;5039686;28;20507;-81
2021/07/17 07:05:28;;;;;;;29.80;15.07;;;20.10;94.60;;;;;;5040766;28;20032;-81
2021/07/17 07:07:53;;;;;;;30.92;15.20;;;20.10;94.40;;;;;;5034386;28;20036;-81
2021/07/17 07:10:19;;;;;;;27.40;13.70;;;20.20;94.40;;;;;;5054062;28;20040;-81
2021/07/17 07:12:44;;;;;;;28.38;14.90;;;20.10;94.30;;;;;;5021064;28;20039;-81
2021/07/17 07:15:10;;;;;;;29.98;14.38;;;20.30;94.30;;;;;;5043039;28;20033;-82
2021/07/17 07:17:36;;;;;;;25.92;12.75;;;20.30;94.20;;;;;;5037653;28;20029;-81
2021/07/17 07:20:06;;;;;;;35.55;14.90;;;20.40;94.20;;;;;;5024940;28;20056;-81
2021/07/17 07:22:32;;;;;;;32.13;14.20;;;20.50;94.10;;;;;;5032607;28;20035;-82
2021/07/17 07:24:57;;;;;;;28.30;13.25;;;20.50;94.00;;;;;;5031052;28;20029;-82
2021/07/17 07:27:23;;;;;;;30.10;14.32;;;20.50;94.00;;;;;;5033432;28;20108;-82
2021/07/17 07:29:48;;;;;;;33.55;12.80;;;20.60;94.20;;;;;;5050753;28;20036;-81
2021/07/17 07:32:14;;;;;;;28.50;12.77;;;20.70;94.00;;;;;;5031263;28;20029;-81
2021/07/17 07:34:40;;;;;;;22.15;12.57;;;20.70;93.90;;;;;;5034964;28;20112;-82
2021/07/17 07:37:05;;;;;;;23.50;11.40;;;20.70;94.00;;;;;;5040652;28;20100;-82
2021/07/17 07:39:32;;;;;;;25.83;11.90;;;20.80;94.00;;;;;;5032434;28;20056;-82
2021/07/17 07:41:57;;;;;;;28.25;11.52;;;21.00;94.00;;;;;;5050658;28;20111;-81
2021/07/17 07:44:23;;;;;;;31.02;11.35;;;21.10;94.00;;;;;;5042293;28;20108;-82
2021/07/17 07:46:49;;;;;;;26.45;11.32;;;21.20;93.80;;;;;;5029047;28;20033;-83
2021/07/17 07:49:15;;;;;;;30.20;12.38;;;21.30;93.70;;;;;;5043677;28;20524;-82
2021/07/17 07:51:40;;;;;;;30.30;12.82;;;21.30;93.50;;;;;;5016227;28;20028;-81
2021/07/17 07:54:06;;;;;;;28.52;10.73;;;21.40;93.50;;;;;;5057797;28;20115;-82
2021/07/17 07:56:31;;;;;;;35.60;12.15;;;21.50;93.40;;;;;;5032883;28;20409;-82
2021/07/17 07:58:57;;;;;;;27.80;11.68;;;21.60;93.30;;;;;;5029141;28;20116;-82
2021/07/17 08:01:22;;;;;;;26.95;12.05;;;21.60;93.30;;;;;;5043397;28;20369;-83
2021/07/17 08:03:48;;;;;;;25.55;11.50;;;21.70;93.40;;;;;;5050729;28;20497;-81
2021/07/17 08:06:15;;;;;;;27.90;11.98;;;21.80;93.50;;;;;;5015531;28;20028;-82
2021/07/17 08:08:40;;;;;;;22.98;11.20;;;22.00;93.40;;;;;;5052139;28;20033;-82
2021/07/17 08:11:06;;;;;;;21.77;11.02;;;22.20;93.10;;;;;;5042504;28;20244;-82
2021/07/17 08:13:31;;;;;;;22.50;10.20;;;22.40;92.90;;;;;;5022414;28;20484;-82
2021/07/17 08:15:59;;;;;;;22.92;8.55;;;22.50;93.00;;;;;;5030849;28;20051;-82
2021/07/17 08:18:25;;;;;;;24.27;9.30;;;22.60;92.70;;;;;;5044921;28;20032;-83
2021/07/17 08:20:50;;;;;;;18.27;7.97;;;22.80;92.60;;;;;;5014100;28;20467;-83
2021/07/17 08:23:16;;;;;;;18.88;8.48;;;23.00;92.40;;;;;;5039486;28;20041;-82
2021/07/17 08:25:42;;;;;;;25.65;10.05;;;22.90;92.50;;;;;;5030677;28;20509;-82
2021/07/17 08:28:07;;;;;;;20.67;7.65;;;23.10;92.50;;;;;;5053186;28;20033;-82
2021/07/17 08:30:35;;;;;;;22.63;8.02;;;23.30;92.40;;;;;;5027620;28;20037;-83
2021/07/17 08:33:01;;;;;;;18.65;8.40;;;23.40;92.40;;;;;;5037064;28;20040;-82
2021/07/17 08:35:26;;;;;;;15.70;7.90;;;23.70;92.60;;;;;;5015792;28;20028;-83
2021/07/17 08:37:52;;;;;;;15.23;7.53;;;24.00;92.00;;;;;;5014121;28;20036;-83
2021/07/17 08:40:18;;;;;;;18.48;7.13;;;24.50;91.20;;;;;;5031022;28;20492;-82
2021/07/17 08:42:45;;;;;;;16.17;6.82;;;24.70;90.60;;;;;;5034548;28;20040;-83
2021/07/17 08:45:11;;;;;;;20.77;8.10;;;24.90;90.70;;;;;;5057058;28;20496;-82
2021/07/17 08:47:40;;;;;;;24.92;7.38;;;24.90;90.60;;;;;;5037455;28;20166;-83
2021/07/17 08:50:07;;;;;;;16.05;6.55;;;24.90;90.50;;;;;;5039549;28;20374;-83
2021/07/17 08:52:32;;;;;;;17.25;6.25;;;25.10;89.80;;;;;;5020227;28;20494;-82
2021/07/17 08:55:04;;;;;;;17.67;7.38;;;25.30;88.40;;;;;;5053465;28;20053;-83
2021/07/17 08:57:36;;;;;;;20.45;6.80;;;25.40;88.70;;;;;;5023637;28;20031;-83
2021/07/17 09:00:09;;;;;;;15.07;7.03;;;25.40;89.80;;;;;;5026376;28;20029;-82
2021/07/17 09:02:38;;;;;;;21.17;7.07;;;25.50;89.10;;;;;;5030048;28;20035;-82
2021/07/17 09:05:07;;;;;;;17.05;7.05;;;25.70;89.00;;;;;;5043485;28;20264;-82
2021/07/17 09:07:32;;;;;;;17.05;7.65;;;25.90;88.80;;;;;;5021729;28;20035;-82
2021/07/17 09:09:58;;;;;;;17.42;6.72;;;26.20;88.00;;;;;;5027677;28;20025;-82
2021/07/17 09:12:24;;;;;;;14.55;6.15;;;26.50;86.90;;;;;;5018650;28;20035;-82
2021/07/17 09:14:50;;;;;;;13.68;5.80;;;26.60;85.60;;;;;;5036313;28;20600;-82
2021/07/17 09:17:24;;;;;;;14.57;6.10;;;27.10;85.00;;;;;;5027617;28;20033;-82
2021/07/17 09:19:58;;;;;;;17.00;6.00;;;27.20;85.20;;;;;;5027554;28;20234;-83
2021/07/17 09:22:56;;;;;;;15.80;6.00;;;27.80;82.50;;;;;;5022093;28;20488;-82
2021/07/17 09:25:22;;;;;;;13.45;5.32;;;28.00;81.40;;;;;;5005738;28;20408;-83
2021/07/17 09:27:47;;;;;;;14.38;4.70;;;27.90;82.50;;;;;;5017953;28;20051;-83
2021/07/17 09:30:25;;;;;;;12.73;5.50;;;28.20;82.60;;;;;;5059169;28;20052;-83
2021/07/17 09:33:00;;;;;;;9.25;4.75;;;28.30;83.00;;;;;;5038366;28;20688;-83
2021/07/17 09:35:26;;;;;;;12.45;5.03;;;28.60;82.40;;;;;;5022697;28;20040;-83
2021/07/17 09:37:55;;;;;;;17.85;6.00;;;28.90;81.60;;;;;;5034790;28;20036;-83
2021/07/17 09:40:24;;;;;;;12.90;5.28;;;29.10;78.10;;;;;;5036948;28;20036;-82
2021/07/17 09:42:50;;;;;;;14.82;5.18;;;29.40;79.60;;;;;;5021288;28;20037;-82
2021/07/17 09:45:37;;;;;;;12.48;4.82;;;29.50;78.40;;;;;;5031154;28;20070;-83
2021/07/17 09:48:30;;;;;;;11.32;4.85;;;29.50;78.40;;;;;;5034433;28;20032;-83
2021/07/17 09:50:56;;;;;;;12.35;5.05;;;29.70;79.00;;;;;;5030735;28;20057;-83
2021/07/17 09:53:41;;;;;;;14.35;5.32;;;29.80;78.30;;;;;;5048979;28;20033;-83
2021/07/17 09:56:18;;;;;;;18.13;5.50;;;30.00;77.00;;;;;;5046745;28;20088;-83
2021/07/17 09:58:44;;;;;;;15.57;5.13;;;30.60;74.60;;;;;;5030321;28;20082;-81
2021/07/17 10:01:16;;;;;;;12.43;4.20;;;30.60;75.90;;;;;;5033621;28;20476;-83
2021/07/17 10:03:42;;;;;;;10.32;4.00;;;30.70;76.20;;;;;;5037312;28;20058;-82
2021/07/17 10:06:08;;;;;;;12.02;4.90;;;30.80;74.60;;;;;;5048322;28;20032;-81
2021/07/17 10:08:35;;;;;;;9.50;4.20;;;31.00;73.60;;;;;;5053725;28;20312;-82
2021/07/17 10:11:11;;;;;;;15.27;4.32;;;31.00;73.10;;;;;;5034493;28;20400;-82
2021/07/17 10:13:40;;;;;;;12.63;4.47;;;31.00;73.30;;;;;;5035924;28;20081;-82
2021/07/17 10:16:19;;;;;;;12.10;4.47;;;31.20;73.60;;;;;;5026762;28;20059;-81
2021/07/17 10:18:45;;;;;;;10.80;3.90;;;31.70;70.10;;;;;;5016616;28;20032;-81
2021/07/17 10:21:11;;;;;;;13.57;3.75;;;31.60;68.10;;;;;;5029770;28;20029;-82
2021/07/17 10:23:36;;;;;;;10.68;3.83;;;31.50;69.60;;;;;;5023190;28;20036;-82
2021/07/17 10:26:02;;;;;;;12.55;3.35;;;31.70;66.90;;;;;;5028556;28;20051;-82
2021/07/17 10:28:28;;;;;;;7.38;3.80;;;31.80;67.40;;;;;;5039534;28;20029;-82
2021/07/17 10:30:54;;;;;;;11.68;3.45;;;31.50;66.60;;;;;;5045823;28;20043;-83
2021/07/17 10:33:19;;;;;;;11.23;4.05;;;31.90;66.60;;;;;;5056797;28;20476;-82
2021/07/17 10:35:45;;;;;;;9.20;4.13;;;32.10;64.40;;;;;;5033576;28;20036;-84
2021/07/17 10:38:11;;;;;;;10.55;3.33;;;32.20;62.80;;;;;;5018020;28;20094;-81
2021/07/17 10:40:37;;;;;;;12.52;3.20;;;31.90;64.50;;;;;;5018877;28;20127;-82
2021/07/17 10:43:03;;;;;;;10.15;3.63;;;31.90;66.00;;;;;;5014186;28;20029;-82
2021/07/17 10:45:36;;;;;;;6.32;2.50;;;31.90;65.20;;;;;;5052225;28;20029;-81
2021/07/17 10:48:03;;;;;;;9.52;3.38;;;31.80;65.40;;;;;;5053345;28;20036;-83
2021/07/17 10:50:33;;;;;;;8.90;3.55;;;32.10;64.00;;;;;;5018101;28;20033;-82
2021/07/17 10:52:58;;;;;;;9.48;2.72;;;32.00;64.30;;;;;;5027805;28;20039;-81
2021/07/17 10:55:32;;;;;;;11.00;2.92;;;32.20;63.80;;;;;;5017125;28;20028;-80
2021/07/17 10:58:12;;;;;;;13.15;3.45;;;32.10;63.80;;;;;;5036931;28;20033;-80
2021/07/17 11:00:41;;;;;;;9.70;3.05;;;32.40;62.70;;;;;;5056705;28;20029;-80
2021/07/17 11:03:17;;;;;;;7.68;3.00;;;32.40;63.30;;;;;;5042321;28;20591;-80
2021/07/17 11:05:42;;;;;;;11.55;2.83;;;32.60;62.70;;;;;;5050413;28;20435;-79
2021/07/17 11:08:33;;;;;;;7.75;2.75;;;32.40;63.50;;;;;;5045999;28;20101;-80
2021/07/17 11:10:59;;;;;;;6.70;2.47;;;32.60;64.20;;;;;;5032768;28;20440;-80
2021/07/17 11:13:34;;;;;;;7.95;3.33;;;32.90;61.30;;;;;;5036679;28;20028;-79
2021/07/17 11:16:00;;;;;;;;;;;33.10;60.60;;;;;;5032619;28;20024;-79
2021/07/17 11:18:26;;;;;;;6.22;2.53;;;33.10;60.20;;;;;;5049288;28;19916;-79
2021/07/17 11:20:58;;;;;;;5.75;2.78;;;33.00;60.70;;;;;;5033463;28;20063;-79
2021/07/17 11:23:27;;;;;;;8.82;3.58;;;33.20;59.50;;;;;;5046467;28;20195;-79
2021/07/17 11:26:00;;;;;;;4.90;2.55;;;33.20;60.40;;;;;;5043996;28;20045;-79
2021/07/17 11:28:50;;;;;;;8.27;3.28;;;33.20;60.00;;;;;;5063512;28;20032;-78
2021/07/17 11:31:50;;;;;;;8.25;2.35;;;33.20;60.60;;;;;;5032658;28;20388;-78
2021/07/17 11:34:24;;;;;;;7.97;2.25;;;33.40;60.20;;;;;;5043155;28;20048;-78
2021/07/17 11:36:55;;;;;;;7.70;2.43;;;33.40;59.00;;;;;;5057469;28;20033;-78
2021/07/17 11:39:22;;;;;;;6.65;2.45;;;33.60;58.80;;;;;;5032510;28;20793;-78
2021/07/17 11:41:47;;;;;;;4.95;2.22;;;33.70;60.00;;;;;;5036096;28;20373;-79
2021/07/17 11:44:13;;;;;;;10.10;3.08;;;33.80;58.30;;;;;;5031839;28;20073;-78
2021/07/17 11:47:04;;;;;;;8.88;2.78;;;34.00;57.80;;;;;;5033526;28;20028;-78
2021/07/17 11:49:34;;;;;;;8.10;3.40;;;33.90;56.30;;;;;;5038219;28;20101;-78
2021/07/17 11:52:02;;;;;;;8.75;2.60;;;34.10;56.80;;;;;;5034313;28;20029;-78
2021/07/17 11:54:28;;;;;;;6.88;2.22;;;33.90;57.40;;;;;;5014775;28;20411;-78
2021/07/17 11:57:24;;;;;;;6.40;2.40;;;33.80;58.10;;;;;;5052451;28;20037;-78
2021/07/17 12:00:09;;;;;;;6.90;2.55;;;33.80;57.50;;;;;;5056282;28;20040;-78
2021/07/17 12:02:34;;;;;;;6.13;2.47;;;33.60;58.90;;;;;;5043231;28;20322;-78
2021/07/17 12:05:08;;;;;;;4.60;2.70;;;33.80;57.10;;;;;;5024491;28;20025;-78
2021/07/17 12:07:34;;;;;;;7.35;2.75;;;34.00;55.30;;;;;;5021345;28;20025;-78
2021/07/17 12:10:02;;;;;;;4.05;2.20;;;34.00;56.00;;;;;;5025079;28;20322;-78
2021/07/17 12:12:43;;;;;;;7.35;2.22;;;33.90;57.30;;;;;;5032943;28;20029;-78
2021/07/17 12:15:19;;;;;;;6.95;2.78;;;33.90;55.60;;;;;;5033585;28;20041;-78
2021/07/17 12:17:48;;;;;;;5.68;2.30;;;33.90;56.60;;;;;;5029012;28;20072;-78
2021/07/17 12:20:21;;;;;;;5.38;1.90;;;34.10;55.00;;;;;;5054521;28;20107;-78
2021/07/17 12:22:55;;;;;;;7.07;2.15;;;33.90;56.30;;;;;;5048478;28;20116;-78
2021/07/17 12:25:23;;;;;;;10.00;2.35;;;33.90;56.70;;;;;;5030052;28;20119;-78
2021/07/17 12:27:49;;;;;;;4.32;2.20;;;34.10;56.40;;;;;;5015841;28;20428;-78
2021/07/17 12:30:15;;;;;;;5.22;2.38;;;34.00;56.20;;;;;;5037210;28;20039;-78
2021/07/17 12:32:40;;;;;;;6.57;1.98;;;34.10;54.40;;;;;;5035456;28;20040;-78